Time;durP1;ratioP1;P1;durP2;ratioP2;P2;SDS_P1;SDS_P2;PMS_P1;PMS_P2;Temp;Humidity;BMP_temperature;BMP_pressure;BME280_temperature;BME280_humidity;BME280_pressure;Samples;Min_cycle;Max_cycle;Signal;HPM_P1;HPM_P2
2021/09/30 00:02:20;;;;;;;;;;;11.00;99.90;;;;;;5069032;28;19920;-63
2021/09/30 00:04:46;;;;;;;;;;;11.00;99.90;;;;;;5068742;28;20344;-63
2021/09/30 00:07:12;;;;;;;;;;;11.00;1.00;;;;;;5069251;28;19973;-64
2021/09/30 00:09:39;;;;;;;;;;;11.00;1.00;;;;;;5069411;28;19995;-61
2021/09/30 00:12:14;;;;;;;;;;;10.90;1.00;;;;;;5068208;28;19996;-63
2021/09/30 00:14:55;;;;;;;;;;;10.90;1.00;;;;;;5067981;28;19908;-63
2021/09/30 00:45:27;;;;;;;;;;;10.40;99.90;;;;;;5038404;28;19916;-63
2021/09/30 00:49:32;;;;;;;;;;;10.30;1.00;;;;;;5051976;28;19978;-62
2021/09/30 01:52:23;;;;;;;;;;;10.10;1.00;;;;;;5070687;28;19971;-62
2021/09/30 02:58:15;;;;;;;;;;;9.50;1.00;;;;;;5069468;28;19977;-62
2021/09/30 03:00:42;;;;;;;;;;;9.40;1.00;;;;;;5068580;28;19909;-62
2021/09/30 03:03:10;;;;;;;;;;;9.30;1.00;;;;;;5069252;28;19912;-61
2021/09/30 03:05:36;;;;;;;;;;;9.30;1.00;;;;;;5069110;28;19995;-62
2021/09/30 03:08:01;;;;;;;;;;;9.30;1.00;;;;;;5069554;28;20024;-63
2021/09/30 03:10:27;;;;;;;;;;;9.30;1.00;;;;;;5067335;28;19920;-63
2021/09/30 03:12:54;;;;;;;;;;;9.40;1.00;;;;;;5068477;28;19908;-63
2021/09/30 03:23:04;;;;;;;;;;;9.40;1.00;;;;;;5069505;28;19913;-63
2021/09/30 03:25:30;;;;;;;;;;;9.30;1.00;;;;;;5068977;28;19915;-63
2021/09/30 03:27:56;;;;;;;;;;;9.30;1.00;;;;;;5069017;28;19913;-63
2021/09/30 03:30:23;;;;;;;;;;;9.20;1.00;;;;;;5067763;28;19908;-62
2021/09/30 03:32:50;;;;;;;;;;;9.20;1.00;;;;;;5068614;28;20411;-63
2021/09/30 03:35:15;;;;;;;;;;;9.20;1.00;;;;;;5068241;28;19908;-63
2021/09/30 03:37:41;;;;;;;;;;;9.20;1.00;;;;;;5069080;28;19923;-63
2021/09/30 03:40:07;;;;;;;;;;;9.10;71.70;;;;;;5068682;28;19970;-63
2021/09/30 03:42:32;;;;;;;;;;;9.00;99.90;;;;;;5067542;28;19924;-62
2021/09/30 03:44:57;;;;;;;;;;;9.00;99.90;;;;;;5067710;28;19909;-63
2021/09/30 03:47:23;;;;;;;;;;;9.10;99.90;;;;;;5069292;28;20400;-62
2021/09/30 03:49:50;;;;;;;;;;;9.00;99.90;;;;;;5068633;28;20572;-62
2021/09/30 04:00:14;;;;;;;;;;;8.90;99.90;;;;;;5068122;28;20065;-63
2021/09/30 04:02:39;;;;;;;;;;;8.90;99.90;;;;;;5067615;28;20011;-63
2021/09/30 04:05:05;;;;;;;;;;;8.80;99.90;;;;;;5067713;28;19922;-63
2021/09/30 04:07:31;;;;;;;;;;;8.80;99.90;;;;;;5068810;28;20349;-63
2021/09/30 04:09:56;;;;;;;;;;;8.80;99.90;;;;;;5068394;28;19916;-63
2021/09/30 04:12:22;;;;;;;;;;;8.80;99.90;;;;;;5067748;28;20345;-63
2021/09/30 04:14:47;;;;;;;;;;;8.90;99.90;;;;;;5067125;28;19912;-63
2021/09/30 04:17:13;;;;;;;;;;;8.80;99.90;;;;;;5068455;28;19931;-63
2021/09/30 04:19:38;;;;;;;;;;;8.80;99.90;;;;;;5067941;28;19955;-63
2021/09/30 04:22:04;;;;;;;;;;;8.70;99.90;;;;;;5068104;28;19920;-63
2021/09/30 04:24:29;;;;;;;;;;;8.60;1.00;;;;;;5068383;28;19912;-63
2021/09/30 04:26:55;;;;;;;;;;;8.60;1.00;;;;;;5067964;28;19909;-63
2021/09/30 04:29:21;;;;;;;;;;;8.50;1.00;;;;;;5067514;28;19909;-62
2021/09/30 04:31:47;;;;;;;;;;;8.40;1.00;;;;;;5067845;28;19920;-62
2021/09/30 04:34:12;;;;;;;;;;;8.40;1.00;;;;;;5068073;28;20253;-63
2021/09/30 04:36:38;;;;;;;;;;;8.40;1.00;;;;;;5068053;28;20006;-63
2021/09/30 04:39:04;;;;;;;;;;;8.40;1.00;;;;;;5063787;28;19916;-63
2021/09/30 04:41:30;;;;;;;;;;;8.30;1.00;;;;;;5067042;28;20377;-63
2021/09/30 04:43:55;;;;;;;;;;;8.20;1.00;;;;;;5066370;28;19954;-62
2021/09/30 04:46:21;;;;;;;;;;;8.10;1.00;;;;;;5066657;28;20334;-63
2021/09/30 04:48:49;;;;;;;;;;;8.10;1.00;;;;;;5067229;28;19919;-63
2021/09/30 04:51:15;;;;;;;;;;;8.00;1.00;;;;;;5065523;28;19912;-63
2021/09/30 04:53:41;;;;;;;;;;;8.00;1.00;;;;;;5065249;28;19916;-62
2021/09/30 04:56:07;;;;;;;;;;;8.00;1.00;;;;;;5065310;28;19912;-62
2021/09/30 04:58:32;;;;;;;;;;;7.90;1.00;;;;;;5065024;28;20317;-62
2021/09/30 05:00:58;;;;;;;;;;;7.90;1.00;;;;;;5064036;28;19916;-61
2021/09/30 05:03:23;;;;;;;;;;;7.90;1.00;;;;;;5064603;28;19914;-61
2021/09/30 05:05:49;;;;;;;;;;;7.90;1.00;;;;;;5064928;28;19909;-62
2021/09/30 05:08:15;;;;;;;;;;;7.90;1.00;;;;;;5065414;28;19948;-63
2021/09/30 05:10:42;;;;;;;;;;;7.90;1.00;;;;;;5064621;28;20365;-63
2021/09/30 05:13:36;;;;;;;;;;;7.90;1.00;;;;;;5063236;28;20704;-64
2021/09/30 05:15:53;;;;;;;;;;;7.90;1.00;;;;;;5072923;28;20000;-64
2021/09/30 05:18:18;;;;;;;;;;;7.90;1.00;;;;;;5093263;22;20030;-65
2021/09/30 05:20:44;;;;;;;;;;;7.90;1.00;;;;;;5069651;28;19917;-66
2021/09/30 05:23:10;;;;;;;;;;;7.90;1.00;;;;;;5067550;28;20307;-63
2021/09/30 05:25:35;;;;;;;;;;;7.90;1.00;;;;;;5068928;28;19909;-63
2021/09/30 05:28:02;;;;;;;;;;;8.00;1.00;;;;;;5068285;28;19913;-61
2021/09/30 05:30:28;;;;;;;;;;;8.00;1.00;;;;;;5068685;28;19916;-60
2021/09/30 05:32:55;;;;;;;;;;;8.00;1.00;;;;;;5061929;28;20242;-62
2021/09/30 05:35:20;;;;;;;;;;;8.30;1.00;;;;;;5067701;28;19920;-63
2021/09/30 05:37:46;;;;;;;;;;;8.80;1.00;;;;;;5059863;28;20325;-61
2021/09/30 05:40:15;;;;;;;;;;;9.50;1.00;;;;;;5062332;28;19920;-62
2021/09/30 05:42:43;;;;;;;;;;;10.20;1.00;;;;;;5066824;28;19967;-58
2021/09/30 05:45:11;;;;;;;;;;;11.00;1.00;;;;;;5065128;28;19927;-62
2021/09/30 05:47:37;;;;;;;;;;;11.80;1.00;;;;;;5068211;28;19908;-62
2021/09/30 05:50:03;;;;;;;;;;;12.60;99.90;;;;;;5066947;28;20565;-63
2021/09/30 05:52:29;;;;;;;;;;;13.50;1.00;;;;;;5066515;28;19957;-64
2021/09/30 05:54:54;;;;;;;;;;;14.20;1.00;;;;;;5066933;28;20303;-64
2021/09/30 05:57:20;;;;;;;;;;;15.00;99.90;;;;;;5066947;28;19931;-63
2021/09/30 05:59:46;;;;;;;;;;;15.60;99.90;;;;;;5065643;28;19944;-63
2021/09/30 06:04:25;;;;;;;;;;;16.20;99.90;;;;;;5066863;28;20306;-63
2021/09/30 06:12:56;;;;;;;;;;;18.80;99.90;;;;;;5067914;28;19909;-65
2021/09/30 06:15:42;;;;;;;;;;;19.50;99.90;;;;;;5067556;28;19920;-63
2021/09/30 06:18:08;;;;;;;;;;;20.10;99.90;;;;;;5068825;28;20355;-64
2021/09/30 06:20:34;;;;;;;;;;;20.70;99.90;;;;;;5067737;28;19908;-64
2021/09/30 06:23:00;;;;;;;;;;;21.20;99.90;;;;;;5067106;28;20030;-64
2021/09/30 06:25:26;;;;;;;;;;;21.80;99.90;;;;;;5066768;28;19908;-65
2021/09/30 06:27:51;;;;;;;;;;;22.70;99.90;;;;;;5066576;28;19912;-64
2021/09/30 06:30:17;;;;;;;;;;;23.50;99.90;;;;;;5066019;28;20303;-64
2021/09/30 06:32:43;;;;;;;;;;;24.10;99.90;;;;;;5066597;28;19913;-66
2021/09/30 06:35:08;;;;;;;;;;;24.60;99.90;;;;;;5067982;28;20246;-63
2021/09/30 06:37:34;;;;;;;;;;;25.40;99.90;;;;;;5066801;28;19913;-64
2021/09/30 06:39:59;;;;;;;;;;;25.90;99.90;;;;;;5066996;28;20039;-65
2021/09/30 06:42:25;;;;;;;;;;;26.80;99.90;;;;;;5068804;28;19973;-65
2021/09/30 06:44:51;;;;;;;;;;;27.40;99.90;;;;;;5068170;28;20048;-63
2021/09/30 06:47:17;;;;;;;;;;;28.20;99.90;;;;;;5070777;28;19943;-63
2021/09/30 06:49:42;;;;;;;;;;;28.90;99.90;;;;;;5067201;28;19913;-65
2021/09/30 06:52:08;;;;;;;;;;;29.40;99.90;;;;;;5070285;28;19991;-64
2021/09/30 06:54:33;;;;;;;;;;;29.90;99.90;;;;;;5070609;28;19923;-64
2021/09/30 06:56:59;;;;;;;;;;;30.50;99.90;;;;;;5070645;28;20002;-64
2021/09/30 06:59:32;;;;;;;;;;;31.20;99.90;;;;;;5069570;28;20277;-64
2021/09/30 07:01:58;;;;;;;;;;;32.30;99.90;;;;;;5070400;28;19988;-64
2021/09/30 07:04:24;;;;;;;;;;;33.00;99.90;;;;;;5070194;28;19999;-64
2021/09/30 07:06:49;;;;;;;;;;;33.30;98.70;;;;;;5071323;28;19966;-64
2021/09/30 07:09:15;;;;;;;;;;;33.80;93.40;;;;;;5070037;28;20015;-64
2021/09/30 07:11:40;;;;;;;;;;;34.60;86.00;;;;;;5069943;28;19916;-64
2021/09/30 07:14:05;;;;;;;;;;;35.20;75.20;;;;;;5068662;28;20003;-65
2021/09/30 07:16:31;;;;;;;;;;;35.70;64.40;;;;;;5069411;28;19970;-64
2021/09/30 07:18:56;;;;;;;;;;;36.00;56.90;;;;;;5070504;28;19921;-63
2021/09/30 07:21:22;;;;;;;;;;;36.90;50.00;;;;;;5069574;28;20062;-63
2021/09/30 07:23:47;;;;;;;;;;;37.50;43.30;;;;;;5068960;28;20360;-63
2021/09/30 07:26:13;;;;;;;;;;;37.70;37.00;;;;;;5070207;28;19909;-64
2021/09/30 07:28:39;;;;;;;;;;;38.00;30.40;;;;;;5069844;28;19916;-63
2021/09/30 07:31:04;;;;;;;;;;;38.50;25.60;;;;;;5068413;28;19912;-63
2021/09/30 07:33:30;;;;;;;;;;;39.20;20.60;;;;;;5069228;28;19915;-63
2021/09/30 07:35:56;;;;;;;;;;;40.00;16.20;;;;;;5068846;28;19996;-63
2021/09/30 07:38:22;;;;;;;;;;;40.90;11.20;;;;;;5068625;28;19908;-63
2021/09/30 07:40:48;;;;;;;;;;;41.30;16.00;;;;;;5069267;28;19995;-63
2021/09/30 07:43:14;;;;;;;;;;;41.90;1.00;;;;;;5068232;28;19909;-63
2021/09/30 07:45:39;;;;;;;;;;;42.20;1.00;;;;;;5068635;28;20303;-64
2021/09/30 07:48:05;;;;;;;;;;;42.90;1.00;;;;;;5069652;28;19909;-64
2021/09/30 07:50:30;;;;;;;;;;;43.40;1.00;;;;;;5069162;28;20270;-64
2021/09/30 07:52:57;;;;;;;;;;;43.30;1.00;;;;;;5069059;28;19985;-64
2021/09/30 07:55:23;;;;;;;;;;;43.10;1.00;;;;;;5069055;28;20383;-64
2021/09/30 07:57:49;;;;;;;;;;;42.50;1.00;;;;;;5068489;28;19924;-63
2021/09/30 08:00:14;;;;;;;;;;;42.70;1.00;;;;;;5067976;28;20425;-64
2021/09/30 08:02:40;;;;;;;;;;;43.20;1.00;;;;;;5069062;28;19913;-63
2021/09/30 08:05:05;;;;;;;;;;;44.00;1.00;;;;;;5069005;28;20004;-64
2021/09/30 08:07:31;;;;;;;;;;;44.00;1.00;;;;;;5070320;28;20000;-64
2021/09/30 08:09:56;;;;;;;;;;;44.50;1.00;;;;;;5068622;28;19908;-64
2021/09/30 08:12:23;;;;;;;;;;;44.50;1.00;;;;;;5067964;28;19960;-64
2021/09/30 08:14:48;;;;;;;;;;;44.60;1.00;;;;;;5068259;28;19913;-64
2021/09/30 08:17:14;;;;;;;;;;;44.30;1.00;;;;;;5069388;28;19923;-64
2021/09/30 08:19:39;;;;;;;;;;;44.80;1.00;;;;;;5068384;28;19939;-64
2021/09/30 08:22:05;;;;;;;;;;;45.40;1.00;;;;;;5067778;28;20276;-64
2021/09/30 08:24:30;;;;;;;;;;;46.10;1.00;;;;;;5069078;28;19915;-64
2021/09/30 08:26:56;;;;;;;;;;;47.10;1.00;;;;;;5068403;28;20044;-64
2021/09/30 08:29:22;;;;;;;;;;;46.60;1.00;;;;;;5067844;28;19924;-64
2021/09/30 08:31:47;;;;;;;;;;;46.40;1.00;;;;;;5069098;28;20318;-64
2021/09/30 08:34:13;;;;;;;;;;;46.40;1.00;;;;;;5068733;28;19916;-65
2021/09/30 08:36:39;;;;;;;;;;;47.60;1.00;;;;;;5068384;28;19986;-65
2021/09/30 08:39:06;;;;;;;;;;;47.90;1.00;;;;;;5068828;28;19918;-65
2021/09/30 08:41:32;;;;;;;;;;;48.70;1.00;;;;;;5068647;28;19913;-64
2021/09/30 08:43:57;;;;;;;;;;;48.50;1.00;;;;;;5067433;28;19912;-65
2021/09/30 08:46:23;;;;;;;;;;;48.60;1.00;;;;;;5068001;28;19912;-65
2021/09/30 08:48:48;;;;;;;;;;;47.90;1.00;;;;;;5068825;28;19923;-64
2021/09/30 08:51:14;;;;;;;;;;;47.00;1.00;;;;;;5071398;28;19915;-64
2021/09/30 08:53:40;;;;;;;;;;;47.00;1.00;;;;;;5071972;28;19995;-64
2021/09/30 08:56:06;;;;;;;;;;;46.80;1.00;;;;;;5072333;28;19951;-65
2021/09/30 08:58:32;;;;;;;;;;;47.60;1.00;;;;;;5071681;28;19986;-64
2021/09/30 09:00:58;;;;;;;;;;;48.10;1.00;;;;;;5071455;28;19912;-65
2021/09/30 09:03:40;;;;;;;;;;;45.20;1.00;;;;;;5072154;28;20419;-65
2021/09/30 09:06:06;;;;;;;;;;;43.60;1.00;;;;;;5072119;28;19999;-65
2021/09/30 09:08:32;;;;;;;;;;;41.30;1.00;;;;;;5071876;28;19915;-64
2021/09/30 09:10:58;;;;;;;;;;;43.00;1.00;;;;;;5072087;28;19913;-64
2021/09/30 09:13:24;;;;;;;;;;;45.10;1.00;;;;;;5071426;28;19916;-65
2021/09/30 09:15:54;;;;;;;;;;;47.10;1.00;;;;;;5072003;28;20438;-64
2021/09/30 09:18:28;;;;;;;;;;;48.00;1.00;;;;;;5072007;28;20482;-64
2021/09/30 09:21:04;;;;;;;;;;;49.10;1.00;;;;;;5071511;28;19908;-65
2021/09/30 09:23:38;;;;;;;;;;;44.40;1.00;;;;;;5071670;28;19915;-64
2021/09/30 09:26:14;;;;;;;;;;;45.90;1.00;;;;;;5071929;28;20326;-64
2021/09/30 09:28:40;;;;;;;;;;;45.70;1.00;;;;;;5071082;28;19959;-64
2021/09/30 09:31:06;;;;;;;;;;;44.00;1.00;;;;;;5071219;28;19908;-65
2021/09/30 09:33:36;;;;;;;;;;;42.80;1.00;;;;;;5071060;28;20412;-64
2021/09/30 09:36:09;;;;;;;;;;;41.60;1.00;;;;;;5071041;28;19913;-65
2021/09/30 09:38:41;;;;;;;;;;;39.40;1.00;;;;;;5051224;28;20274;-65
2021/09/30 09:41:06;;;;;;;;;;;38.00;1.00;;;;;;5051141;28;19913;-64
2021/09/30 09:43:32;;;;;;;;;;;37.90;1.00;;;;;;5050533;28;19916;-64
2021/09/30 09:45:58;;;;;;;;;;;36.90;1.00;;;;;;5050657;28;19909;-63
2021/09/30 09:48:23;;;;;;;;;;;37.00;1.00;;;;;;5051275;28;19959;-64
2021/09/30 09:50:50;;;;;;;;;;;37.20;1.00;;;;;;5051963;28;20361;-64
2021/09/30 09:53:16;;;;;;;;;;;36.80;1.00;;;;;;5070809;28;19912;-65
2021/09/30 09:55:42;;;;;;;;;;;37.20;1.00;;;;;;5071339;28;19999;-64
2021/09/30 09:58:11;;;;;;;;;;;37.10;1.00;;;;;;5071212;28;20033;-65
2021/09/30 10:00:37;;;;;;;;;;;37.70;1.00;;;;;;5069913;28;20372;-64
2021/09/30 10:03:32;;;;;;;;;;;37.40;1.00;;;;;;5067862;28;20058;-65
2021/09/30 10:05:59;;;;;;;;;;;38.10;1.00;;;;;;5069443;28;19915;-65
2021/09/30 10:08:25;;;;;;;;;;;37.50;1.00;;;;;;5071493;28;19909;-65
2021/09/30 10:10:53;;;;;;;;;;;36.30;1.00;;;;;;5070853;28;20373;-65
2021/09/30 10:13:19;;;;;;;;;;;36.70;1.00;;;;;;5070567;28;20540;-65
2021/09/30 10:15:45;;;;;;;;;;;36.20;1.00;;;;;;5070711;28;19916;-65
2021/09/30 10:18:11;;;;;;;;;;;36.40;1.00;;;;;;5071521;28;20003;-65
2021/09/30 10:20:37;;;;;;;;;;;35.70;1.00;;;;;;5070956;28;19959;-65
2021/09/30 10:23:05;;;;;;;;;;;35.30;1.00;;;;;;5070401;28;19978;-65
2021/09/30 10:25:36;;;;;;;;;;;36.20;1.00;;;;;;5069412;28;19913;-65
2021/09/30 10:28:02;;;;;;;;;;;37.00;1.00;;;;;;5070880;28;19919;-65
2021/09/30 10:30:31;;;;;;;;;;;36.60;1.00;;;;;;5070413;28;19909;-65
2021/09/30 10:32:58;;;;;;;;;;;35.80;1.00;;;;;;5070585;28;19919;-65
2021/09/30 10:35:30;;;;;;;;;;;35.40;1.00;;;;;;5070540;28;19975;-66
2021/09/30 10:38:14;;;;;;;;;;;35.80;1.00;;;;;;5070859;28;20257;-65
2021/09/30 10:40:59;;;;;;;;;;;35.30;1.00;;;;;;5070947;28;19980;-65
2021/09/30 10:43:25;;;;;;;;;;;34.10;1.00;;;;;;5069794;28;19923;-65
2021/09/30 10:45:50;;;;;;;;;;;33.30;1.00;;;;;;5069780;28;19909;-65
2021/09/30 10:48:26;;;;;;;;;;;33.20;1.00;;;;;;5070862;28;19951;-65
2021/09/30 10:50:53;;;;;;;;;;;32.60;1.00;;;;;;5069398;28;19913;-66
2021/09/30 10:53:19;;;;;;;;;;;31.40;1.00;;;;;;5069740;28;20470;-65
2021/09/30 10:55:44;;;;;;;;;;;30.70;1.00;;;;;;5070336;28;19916;-65
2021/09/30 10:58:23;;;;;;;;;;;30.50;1.00;;;;;;5070982;28;19909;-65
2021/09/30 11:00:50;;;;;;;;;;;30.20;1.00;;;;;;5070423;28;19920;-65
2021/09/30 11:03:23;;;;;;;;;;;30.00;1.00;;;;;;5069682;28;19952;-64
2021/09/30 11:06:07;;;;;;;;;;;29.60;1.00;;;;;;5070030;28;19934;-64
2021/09/30 11:08:35;;;;;;;;;;;28.80;1.00;;;;;;5070836;28;19909;-64
2021/09/30 11:11:01;;;;;;;;;;;28.70;1.00;;;;;;5070459;28;19908;-65
2021/09/30 11:13:29;;;;;;;;;;;28.90;1.00;;;;;;5069310;28;19912;-64
2021/09/30 11:15:58;;;;;;;;;;;29.50;1.00;;;;;;5068898;28;20352;-65
2021/09/30 11:18:42;;;;;;;;;;;30.10;1.00;;;;;;5078963;22;19917;-65
2021/09/30 11:21:26;;;;;;;;;;;30.10;1.00;;;;;;5048570;28;20003;-66
2021/09/30 11:23:52;;;;;;;;;;;30.40;1.00;;;;;;5049767;28;20432;-65
2021/09/30 11:26:17;;;;;;;;;;;30.20;1.00;;;;;;5049804;28;20075;-66
2021/09/30 11:28:43;;;;;;;;;;;30.20;1.00;;;;;;5049980;28;19944;-65
2021/09/30 11:31:24;;;;;;;;;;;30.20;1.00;;;;;;5049239;28;19920;-64
2021/09/30 11:33:51;;;;;;;;;;;30.40;1.00;;;;;;5049511;28;20372;-64
2021/09/30 11:36:16;;;;;;;;;;;30.40;1.00;;;;;;5047364;28;20286;-65
2021/09/30 11:38:43;;;;;;;;;;;30.00;1.00;;;;;;5041615;28;20138;-65
2021/09/30 11:41:08;;;;;;;;;;;29.90;1.00;;;;;;5037761;28;19929;-64
2021/09/30 11:43:34;;;;;;;;;;;30.00;1.00;;;;;;5037182;28;19916;-66
2021/09/30 11:46:18;;;;;;;;;;;30.10;1.00;;;;;;5038324;28;19932;-65
2021/09/30 11:48:56;;;;;;;;;;;30.00;1.00;;;;;;5039388;28;19920;-65
2021/09/30 11:51:32;;;;;;;;;;;29.70;1.00;;;;;;5040416;28;20328;-64
2021/09/30 11:53:57;;;;;;;;;;;28.10;1.00;;;;;;5048683;28;19913;-64
2021/09/30 11:56:23;;;;;;;;;;;25.40;1.00;;;;;;5048311;28;19909;-64
2021/09/30 11:59:02;;;;;;;;;;;24.70;1.00;;;;;;5049350;28;19916;-64
2021/09/30 12:01:37;;;;;;;;;;;23.90;1.00;;;;;;5048082;28;19924;-64
2021/09/30 12:04:03;;;;;;;;;;;23.80;1.00;;;;;;5048786;28;20003;-66
2021/09/30 12:06:43;;;;;;;;;;;24.10;1.00;;;;;;5049060;28;20289;-64
2021/09/30 12:09:10;;;;;;;;;;;24.80;1.00;;;;;;5049078;28;20368;-64
2021/09/30 12:11:36;;;;;;;;;;;25.30;1.00;;;;;;5048687;28;19919;-64
2021/09/30 12:14:03;;;;;;;;;;;25.40;1.00;;;;;;5047721;28;19909;-64
2021/09/30 12:16:29;;;;;;;;;;;25.50;1.00;;;;;;5048275;28;20429;-64
2021/09/30 12:19:01;;;;;;;;;;;25.60;1.00;;;;;;5049339;28;19999;-64
2021/09/30 12:21:34;;;;;;;;;;;25.20;1.00;;;;;;5048075;28;19977;-65
2021/09/30 12:23:59;;;;;;;;;;;25.10;1.00;;;;;;5045840;28;19972;-64
2021/09/30 12:26:25;;;;;;;;;;;25.10;1.00;;;;;;5048780;28;20281;-65
2021/09/30 12:28:54;;;;;;;;;;;24.80;1.00;;;;;;5046724;28;19919;-65
2021/09/30 12:31:19;;;;;;;;;;;24.70;1.00;;;;;;5042412;28;19913;-65
2021/09/30 12:33:45;;;;;;;;;;;24.70;1.00;;;;;;5038064;28;19920;-65
2021/09/30 12:36:13;;;;;;;;;;;23.90;1.00;;;;;;5036397;28;19917;-64
2021/09/30 12:38:39;;;;;;;;;;;23.30;1.00;;;;;;5039744;28;19913;-65
2021/09/30 12:41:05;;;;;;;;;;;23.00;1.00;;;;;;5036366;28;19924;-65
2021/09/30 12:43:32;;;;;;;;;;;22.50;1.00;;;;;;5037825;28;19913;-65
2021/09/30 12:46:06;;;;;;;;;;;22.10;1.00;;;;;;5037366;28;20285;-65
2021/09/30 12:48:35;;;;;;;;;;;22.20;1.00;;;;;;5039375;28;19913;-65
2021/09/30 12:51:27;;;;;;;;;;;22.60;1.00;;;;;;5040155;28;19974;-64
2021/09/30 12:53:53;;;;;;;;;;;22.50;1.00;;;;;;5035782;28;20658;-63
2021/09/30 12:56:26;;;;;;;;;;;22.30;1.00;;;;;;5040888;28;19967;-64
2021/09/30 12:58:52;;;;;;;;;;;20.60;1.00;;;;;;5037841;28;19944;-64
2021/09/30 13:01:30;;;;;;;;;;;20.10;1.00;;;;;;5037995;28;19959;-64
2021/09/30 13:04:08;;;;;;;;;;;19.70;1.00;;;;;;5040466;28;20007;-65
2021/09/30 13:06:34;;;;;;;;;;;19.50;1.00;;;;;;5048754;28;20007;-65
2021/09/30 13:09:00;;;;;;;;;;;19.80;1.00;;;;;;5048829;28;19921;-65
2021/09/30 13:11:25;;;;;;;;;;;20.00;1.00;;;;;;5048558;28;19912;-65
2021/09/30 13:14:09;;;;;;;;;;;20.20;1.00;;;;;;5047576;28;19912;-64
2021/09/30 13:16:35;;;;;;;;;;;20.60;1.00;;;;;;5047880;28;19909;-65
2021/09/30 13:19:00;;;;;;;;;;;20.90;1.00;;;;;;5048961;28;19986;-65
2021/09/30 13:21:26;;;;;;;;;;;21.30;1.00;;;;;;5047699;28;19912;-65
2021/09/30 13:23:51;;;;;;;;;;;21.50;1.00;;;;;;5047545;28;19916;-65
2021/09/30 13:26:17;;;;;;;;;;;21.60;1.00;;;;;;5046968;28;19921;-65
2021/09/30 13:28:42;;;;;;;;;;;21.60;1.00;;;;;;5048087;28;19967;-65
2021/09/30 13:31:08;;;;;;;;;;;21.50;1.00;;;;;;5047686;28;19913;-65
2021/09/30 13:33:33;;;;;;;;;;;21.10;1.00;;;;;;5048600;28;19913;-65
2021/09/30 13:35:59;;;;;;;;;;;20.70;1.00;;;;;;5047798;28;19909;-65
2021/09/30 13:38:24;;;;;;;;;;;20.50;1.00;;;;;;5049923;28;19917;-65
2021/09/30 13:40:50;;;;;;;;;;;20.20;1.00;;;;;;5032183;28;20424;-65
2021/09/30 13:43:16;;;;;;;;;;;20.00;1.00;;;;;;5044307;28;19913;-65
2021/09/30 13:45:42;;;;;;;;;;;19.40;1.00;;;;;;5051386;28;19928;-64
2021/09/30 13:48:07;;;;;;;;;;;19.00;1.00;;;;;;5051821;28;20404;-65
2021/09/30 13:50:33;;;;;;;;;;;18.40;1.00;;;;;;5051115;28;19923;-65
2021/09/30 13:52:59;;;;;;;;;;;18.00;1.00;;;;;;5049698;28;20293;-65
2021/09/30 13:55:26;;;;;;;;;;;17.80;1.00;;;;;;5049936;28;19909;-65
2021/09/30 13:57:52;;;;;;;;;;;17.80;1.00;;;;;;5050556;28;19916;-65
2021/09/30 14:00:18;;;;;;;;;;;17.70;1.00;;;;;;5049047;28;20301;-64
2021/09/30 14:02:45;;;;;;;;;;;17.60;1.00;;;;;;5049751;28;20388;-64
2021/09/30 14:05:11;;;;;;;;;;;17.80;1.00;;;;;;5050621;28;19917;-65
2021/09/30 14:07:40;;;;;;;;;;;17.90;1.00;;;;;;5051472;28;20004;-65
2021/09/30 14:10:06;;;;;;;;;;;18.10;1.00;;;;;;5046595;28;19909;-64
2021/09/30 14:12:32;;;;;;;;;;;18.20;1.00;;;;;;5030257;28;19913;-64
2021/09/30 14:14:58;;;;;;;;;;;18.30;1.00;;;;;;5030743;28;19909;-64
2021/09/30 14:17:23;;;;;;;;;;;18.40;1.00;;;;;;5030427;28;19909;-63
2021/09/30 14:19:49;;;;;;;;;;;18.30;1.00;;;;;;5030913;28;19927;-63
2021/09/30 14:22:14;;;;;;;;;;;18.10;1.00;;;;;;5031118;28;20358;-64
2021/09/30 14:24:40;;;;;;;;;;;18.00;1.00;;;;;;5040659;28;19976;-63
2021/09/30 14:27:05;;;;;;;;;;;18.10;1.00;;;;;;5058285;28;19915;-63
2021/09/30 14:29:31;;;;;;;;;;;18.10;1.00;;;;;;5055027;28;19913;-64
2021/09/30 14:31:57;;;;;;;;;;;18.00;1.00;;;;;;5054718;28;19916;-67
2021/09/30 14:34:23;;;;;;;;;;;17.70;1.00;;;;;;5052361;28;19939;-64
2021/09/30 14:36:48;;;;;;;;;;;17.70;1.00;;;;;;5053663;28;19999;-64
2021/09/30 14:39:14;;;;;;;;;;;17.60;1.00;;;;;;5054214;28;19916;-64
2021/09/30 14:41:39;;;;;;;;;;;17.70;1.00;;;;;;5052234;28;19916;-63
2021/09/30 14:44:05;;;;;;;;;;;17.70;1.00;;;;;;5051670;28;19944;-63
2021/09/30 14:46:31;;;;;;;;;;;17.70;1.00;;;;;;5050942;28;19962;-64
2021/09/30 14:48:57;;;;;;;;;;;17.60;1.00;;;;;;5051410;28;20031;-64
2021/09/30 14:51:22;;;;;;;;;;;17.40;1.00;;;;;;5050919;28;20011;-63
2021/09/30 14:53:48;;;;;;;;;;;17.20;1.00;;;;;;5050576;28;19971;-64
2021/09/30 14:56:13;;;;;;;;;;;16.90;1.00;;;;;;5051231;28;19955;-64
2021/09/30 14:58:39;;;;;;;;;;;16.80;1.00;;;;;;5049845;28;20004;-64
2021/09/30 15:01:05;;;;;;;;;;;16.70;1.00;;;;;;5049867;28;20380;-64
2021/09/30 15:03:30;;;;;;;;;;;16.80;1.00;;;;;;5050085;28;20011;-65
2021/09/30 15:05:56;;;;;;;;;;;16.90;1.00;;;;;;5050557;28;19909;-64
2021/09/30 15:08:21;;;;;;;;;;;17.00;1.00;;;;;;5051109;28;19916;-64
2021/09/30 15:10:47;;;;;;;;;;;16.90;1.00;;;;;;5050605;28;19913;-64
2021/09/30 15:13:12;;;;;;;;;;;16.90;1.00;;;;;;5049734;28;20285;-65
2021/09/30 15:15:38;;;;;;;;;;;17.00;1.00;;;;;;5049327;28;20296;-64
2021/09/30 15:18:08;;;;;;;;;;;17.10;1.00;;;;;;5050422;28;20019;-64
2021/09/30 15:23:14;;;;;;;;;;;17.30;1.00;;;;;;5049893;28;19913;-65
2021/09/30 15:25:40;;;;;;;;;;;17.30;1.00;;;;;;5049762;28;19917;-64
2021/09/30 15:28:07;;;;;;;;;;;17.30;1.00;;;;;;5050042;28;19988;-65
2021/09/30 15:30:33;;;;;;;;;;;17.30;1.00;;;;;;5048721;28;19909;-63
2021/09/30 15:33:01;;;;;;;;;;;17.30;1.00;;;;;;5049445;28;19913;-64
2021/09/30 15:35:26;;;;;;;;;;;17.10;1.00;;;;;;5049350;28;19919;-65
2021/09/30 15:37:52;;;;;;;;;;;17.00;1.00;;;;;;5049963;28;19908;-64
2021/09/30 15:40:17;;;;;;;;;;;16.90;1.00;;;;;;5049628;28;20345;-64
2021/09/30 15:42:47;;;;;;;;;;;16.90;1.00;;;;;;5048657;28;19924;-64
2021/09/30 15:45:13;;;;;;;;;;;16.80;1.00;;;;;;5049145;28;19913;-64
2021/09/30 15:47:39;;;;;;;;;;;16.90;1.00;;;;;;5049870;28;19912;-64
2021/09/30 15:50:05;;;;;;;;;;;16.90;1.00;;;;;;5064862;28;19912;-64
2021/09/30 15:52:30;;;;;;;;;;;16.90;1.00;;;;;;5049033;28;19916;-64
2021/09/30 15:54:56;;;;;;;;;;;16.90;1.00;;;;;;5048808;28;20000;-65
2021/09/30 15:57:21;;;;;;;;;;;16.80;1.00;;;;;;5049099;28;19971;-64
2021/09/30 15:59:47;;;;;;;;;;;16.70;1.00;;;;;;5047613;28;20719;-64
2021/09/30 16:02:12;;;;;;;;;;;16.70;1.00;;;;;;5048623;28;20016;-64
2021/09/30 16:04:38;;;;;;;;;;;16.70;1.00;;;;;;5048850;28;19908;-64
2021/09/30 16:07:03;;;;;;;;;;;16.60;1.00;;;;;;5049419;28;19909;-65
2021/09/30 16:09:29;;;;;;;;;;;16.60;1.00;;;;;;5049235;28;19924;-65
2021/09/30 16:11:54;;;;;;;;;;;16.40;1.00;;;;;;5048466;28;20019;-63
2021/09/30 16:14:20;;;;;;;;;;;16.30;1.00;;;;;;5049164;28;20292;-64
2021/09/30 16:16:46;;;;;;;;;;;16.20;1.00;;;;;;5049356;28;20410;-63
2021/09/30 16:19:12;;;;;;;;;;;16.20;1.00;;;;;;5048786;28;19921;-65
2021/09/30 16:21:37;;;;;;;;;;;16.20;1.00;;;;;;5048665;28;19916;-65
2021/09/30 16:24:03;;;;;;;;;;;16.10;1.00;;;;;;5048357;28;19916;-64
2021/09/30 16:26:28;;;;;;;;;;;16.00;1.00;;;;;;5049099;28;19913;-64
2021/09/30 16:28:57;;;;;;;;;;;15.90;1.00;;;;;;5045246;28;19909;-64
2021/09/30 16:31:26;;;;;;;;;;;15.70;1.00;;;;;;5043965;28;20011;-65
2021/09/30 16:33:52;;;;;;;;;;;15.50;1.00;;;;;;5048862;28;19909;-63
2021/09/30 16:36:18;;;;;;;;;;;15.40;1.00;;;;;;5048395;28;19915;-64
2021/09/30 16:38:45;;;;;;;;;;;15.20;1.00;;;;;;5049477;28;19915;-64
2021/09/30 16:41:10;;;;;;;;;;;15.10;1.00;;;;;;5048449;28;19909;-64
2021/09/30 16:43:36;;;;;;;;;;;14.90;1.00;;;;;;5048082;28;20015;-64
2021/09/30 16:46:02;;;;;;;;;;;14.70;1.00;;;;;;5048192;28;19908;-64
2021/09/30 16:48:28;;;;;;;;;;;14.60;1.00;;;;;;5049177;28;19963;-65
2021/09/30 16:50:54;;;;;;;;;;;14.50;1.00;;;;;;5048129;28;19937;-65
2021/09/30 16:53:21;;;;;;;;;;;14.50;1.00;;;;;;5048019;28;19957;-64
2021/09/30 16:55:50;;;;;;;;;;;14.40;1.00;;;;;;5048607;28;19916;-65
2021/09/30 16:58:16;;;;;;;;;;;14.40;1.00;;;;;;5048528;28;19913;-65
2021/09/30 17:00:41;;;;;;;;;;;14.30;1.00;;;;;;5047738;28;20007;-65
2021/09/30 17:03:07;;;;;;;;;;;14.10;1.00;;;;;;5048261;28;20413;-65
2021/09/30 17:05:32;;;;;;;;;;;14.10;1.00;;;;;;5047750;28;19986;-65
2021/09/30 17:07:58;;;;;;;;;;;14.00;1.00;;;;;;5048863;28;19909;-65
2021/09/30 17:10:23;;;;;;;;;;;13.90;1.00;;;;;;5047245;28;20285;-65
2021/09/30 17:12:52;;;;;;;;;;;13.90;1.00;;;;;;5051569;28;19914;-65
2021/09/30 17:15:19;;;;;;;;;;;13.90;1.00;;;;;;5050631;28;19920;-64
2021/09/30 17:17:47;;;;;;;;;;;13.80;1.00;;;;;;5052623;28;19989;-64
2021/09/30 17:20:13;;;;;;;;;;;13.80;1.00;;;;;;5074740;22;19935;-65
2021/09/30 17:22:39;;;;;;;;;;;13.80;1.10;;;;;;5051095;28;19916;-67
2021/09/30 17:25:05;;;;;;;;;;;13.80;2.40;;;;;;5051554;28;19913;-67
2021/09/30 17:27:30;;;;;;;;;;;13.70;3.50;;;;;;5036553;28;19913;-68
2021/09/30 17:29:56;;;;;;;;;;;13.60;4.40;;;;;;5043526;28;20008;-68
2021/09/30 17:32:24;;;;;;;;;;;13.50;5.90;;;;;;5049090;28;19971;-67